Time;durP1;ratioP1;P1;durP2;ratioP2;P2;SDS_P1;SDS_P2;PMS_P1;PMS_P2;Temp;Humidity;BMP_temperature;BMP_pressure;BME280_temperature;BME280_humidity;BME280_pressure;Samples;Min_cycle;Max_cycle;Signal;HPM_P1;HPM_P2
2021/06/01 00:00:11;;;;;;;4.03;2.10;;;13.20;99.90;;;14.25;60.87;100933.75;4958172;29;20035;-81
2021/06/01 00:02:38;;;;;;;3.85;2.20;;;12.90;99.90;;;14.02;61.69;100936.56;4957788;28;20082;-79
2021/06/01 00:05:09;;;;;;;3.70;2.50;;;12.70;99.90;;;13.84;63.09;100937.44;4955538;29;20027;-80
2021/06/01 00:07:36;;;;;;;7.43;2.53;;;12.60;99.90;;;13.64;63.66;100940.28;4955694;29;20119;-82
2021/06/01 00:10:07;;;;;;;5.50;2.63;;;12.40;99.90;;;13.47;64.11;100934.31;4956854;28;20035;-80
2021/06/01 00:12:34;;;;;;;4.15;2.15;;;12.20;99.90;;;13.20;65.54;100945.38;4954897;28;20066;-81
2021/06/01 00:15:00;;;;;;;4.35;2.45;;;12.00;99.90;;;12.99;66.10;100935.69;4955069;29;20443;-81
2021/06/01 00:17:26;;;;;;;4.32;2.33;;;11.80;99.90;;;12.86;66.98;100939.78;4955696;29;20058;-79
2021/06/01 00:19:53;;;;;;;2.83;1.85;;;11.70;99.90;;;12.74;68.14;100932.34;4956276;29;20058;-80
2021/06/01 00:22:20;;;;;;;4.05;2.90;;;11.50;99.90;;;12.63;68.82;100934.06;4956017;28;20389;-82
2021/06/01 00:24:46;;;;;;;5.57;2.88;;;11.40;99.90;;;12.53;69.73;100932.66;4954899;29;20055;-80
2021/06/01 00:27:12;;;;;;;5.78;2.70;;;11.30;99.90;;;12.59;69.53;100922.78;4956868;29;20034;-80
2021/06/01 00:29:38;;;;;;;6.57;2.78;;;11.40;99.90;;;12.59;69.27;100933.97;4954629;28;20042;-82
2021/06/01 00:32:04;;;;;;;5.72;3.00;;;11.30;99.90;;;12.47;69.94;100931.31;4959514;28;20089;-83
2021/06/01 00:34:30;;;;;;;4.10;2.45;;;11.30;99.90;;;12.42;70.40;100933.59;4958958;23;20063;-88
2021/06/01 00:36:56;;;;;;;6.57;2.35;;;11.20;99.90;;;12.39;70.61;100937.94;4941836;29;20111;-85
2021/06/01 00:39:21;;;;;;;3.90;2.40;;;11.10;99.90;;;12.39;70.84;100939.91;4941582;29;20035;-86
2021/06/01 00:41:47;;;;;;;4.40;2.28;;;11.10;99.90;;;12.46;71.06;100943.69;4941760;29;20034;-87
2021/06/01 00:44:14;;;;;;;5.85;2.78;;;11.20;99.90;;;12.56;70.05;100945.09;4956190;29;20054;-87
2021/06/01 00:46:40;;;;;;;5.90;2.50;;;11.30;99.90;;;12.55;70.14;100932.28;4970105;28;20042;-88
2021/06/01 00:49:06;;;;;;;5.03;2.30;;;11.20;99.90;;;12.42;70.72;100934.41;4977283;28;20415;-84
2021/06/01 00:51:32;;;;;;;3.50;2.30;;;11.20;99.90;;;12.37;70.63;100929.06;4958378;29;20034;-85
2021/06/01 00:53:58;;;;;;;5.57;2.63;;;11.10;99.90;;;12.33;71.48;100930.16;4957962;28;20027;-84
2021/06/01 00:56:24;;;;;;;4.88;3.08;;;11.10;99.90;;;12.28;71.79;100933.22;4958095;29;20435;-84
2021/06/01 00:58:50;;;;;;;6.95;2.67;;;11.00;99.90;;;12.21;72.05;100935.84;4964591;29;20027;-87
2021/06/01 01:01:19;;;;;;;5.18;2.38;;;11.00;99.90;;;12.03;72.84;100933.44;4971761;29;20042;-88
2021/06/01 01:03:46;;;;;;;4.82;2.95;;;10.80;99.90;;;11.85;74.11;100931.31;4959895;28;20503;-87
2021/06/01 01:06:55;;;;;;;7.00;3.15;;;10.60;99.90;;;11.76;74.53;100937.09;4959473;29;20049;-86
2021/06/01 01:09:26;;;;;;;5.13;2.75;;;10.50;99.90;;;11.68;74.51;100932.47;4959001;29;20405;-85
2021/06/01 01:12:05;;;;;;;5.30;2.72;;;10.50;99.90;;;11.60;74.87;100939.84;4957428;29;20035;-86
2021/06/01 01:14:38;;;;;;;4.90;2.75;;;10.40;99.90;;;11.47;75.55;100931.88;4959570;28;20055;-86
2021/06/01 01:17:30;;;;;;;6.13;2.72;;;10.20;99.90;;;11.37;75.95;100924.81;4961937;29;20041;-84
2021/06/01 01:20:33;;;;;;;4.22;2.47;;;10.20;99.90;;;11.31;76.26;100931.00;4960216;29;20058;-86
2021/06/01 01:23:12;;;;;;;5.30;2.90;;;10.10;99.90;;;11.26;76.47;100934.06;4961655;28;20094;-87
2021/06/01 01:26:12;;;;;;;4.78;3.00;;;10.10;99.90;;;11.28;76.46;100932.53;4963610;29;20043;-85
2021/06/01 01:29:16;;;;;;;7.93;2.95;;;10.10;99.90;;;11.39;75.32;100928.06;4959749;29;20035;-87
2021/06/01 01:31:59;;;;;;;7.72;3.50;;;10.10;99.90;;;11.55;75.81;100925.31;4957612;29;20121;-85
2021/06/01 01:34:28;;;;;;;6.45;3.47;;;10.20;99.90;;;11.68;75.49;100938.06;4956380;28;20086;-87
2021/06/01 01:36:58;;;;;;;7.10;3.75;;;10.40;99.90;;;11.68;75.20;100938.06;4956646;29;20039;-87
2021/06/01 01:39:32;;;;;;;7.15;3.53;;;10.40;99.90;;;11.67;75.85;100925.22;4957565;29;20037;-88
2021/06/01 01:41:59;;;;;;;5.85;3.42;;;10.50;99.90;;;11.68;75.56;100935.25;4957194;28;20027;-84
2021/06/01 01:44:29;;;;;;;11.02;4.72;;;10.40;99.90;;;11.56;75.67;100930.53;4956250;28;20019;-88
2021/06/01 01:48:56;;;;;;;7.10;3.58;;;10.30;99.90;;;11.58;75.96;100936.59;4957779;28;20438;-85
2021/06/01 01:49:45;;;;;;;8.70;3.67;;;10.30;99.90;;;11.65;75.93;100933.97;4958450;28;20499;-86
2021/06/01 01:52:11;;;;;;;9.75;4.05;;;10.40;99.90;;;11.74;75.55;100931.06;4956303;29;20039;-86
2021/06/01 01:54:39;;;;;;;8.80;4.22;;;10.50;99.90;;;11.69;75.38;100927.69;4957762;28;20028;-84
2021/06/01 01:57:11;;;;;;;6.32;3.63;;;10.40;99.90;;;11.57;75.60;100931.34;4956040;28;20134;-86
2021/06/01 01:59:39;;;;;;;5.75;3.90;;;10.40;99.90;;;11.47;76.62;100923.47;4956716;29;20039;-84
2021/06/01 02:02:13;;;;;;;7.47;3.50;;;10.20;99.90;;;11.47;76.31;100918.69;4957092;29;20117;-87
2021/06/01 02:04:41;;;;;;;5.35;3.08;;;10.30;99.90;;;11.57;75.35;100922.94;4960658;28;20051;-86
2021/06/01 02:07:07;;;;;;;4.53;3.22;;;10.30;99.90;;;11.60;74.85;100920.25;4963787;29;20483;-87
2021/06/01 02:09:34;;;;;;;6.80;3.53;;;10.30;99.90;;;11.62;74.66;100919.91;4963921;28;20031;-87
2021/06/01 02:12:01;;;;;;;3.53;2.65;;;10.30;99.90;;;11.43;75.26;100919.78;4957935;29;20336;-87
2021/06/01 02:14:27;;;;;;;6.30;3.08;;;10.20;99.90;;;11.36;76.29;100930.75;4957270;28;20046;-84
2021/06/01 02:16:54;;;;;;;5.68;3.30;;;10.10;99.90;;;11.36;76.39;100927.97;4957447;29;20038;-86
2021/06/01 02:19:22;;;;;;;5.30;3.15;;;10.10;99.90;;;11.45;75.88;100923.03;4957693;29;20035;-86
2021/06/01 02:25:19;;;;;;;5.38;2.88;;;10.10;99.90;;;11.06;77.25;100922.72;4974304;28;20061;-88
2021/06/01 02:28:22;;;;;;;6.13;2.75;;;9.90;99.90;;;10.85;78.18;100922.06;4958960;29;20541;-86
2021/06/01 02:31:01;;;;;;;6.88;2.90;;;9.70;99.90;;;10.74;78.78;100915.38;4957524;29;20038;-86
2021/06/01 02:33:33;;;;;;;4.60;3.08;;;9.60;99.90;;;10.64;78.75;100913.06;4955376;28;20031;-85
2021/06/01 02:36:05;;;;;;;6.90;4.07;;;9.50;99.90;;;10.55;79.38;100912.38;4955073;29;20063;-85
2021/06/01 02:38:36;;;;;;;5.50;3.53;;;9.30;99.90;;;10.48;79.33;100909.34;4955322;29;20046;-86
2021/06/01 02:41:07;;;;;;;6.88;3.97;;;9.30;99.90;;;10.50;79.37;100915.41;4955066;29;20035;-87
2021/06/01 02:43:34;;;;;;;6.15;3.45;;;9.30;99.90;;;10.48;79.85;100923.31;4954753;28;20520;-86
2021/06/01 02:46:00;;;;;;;7.50;3.47;;;9.20;99.90;;;10.43;80.02;100918.81;4956409;29;20190;-88
2021/06/01 02:48:28;;;;;;;4.97;3.38;;;9.20;99.90;;;10.43;80.57;100913.22;4956693;29;20030;-84
2021/06/01 02:51:13;;;;;;;6.20;3.83;;;9.20;99.90;;;10.39;80.48;100912.28;4957217;29;20031;-86
2021/06/01 02:53:54;;;;;;;5.78;3.88;;;9.20;99.90;;;10.29;81.42;100915.56;4956025;28;20107;-84
2021/06/01 02:56:25;;;;;;;7.70;3.75;;;9.10;99.90;;;10.21;81.76;100905.31;4957028;29;20038;-85
2021/06/01 02:58:51;;;;;;;5.05;3.17;;;9.00;99.90;;;10.12;81.68;100907.38;4956500;29;20035;-83
2021/06/01 03:01:21;;;;;;;5.28;3.20;;;9.00;99.90;;;10.03;81.85;100901.91;4956213;29;20027;-85
2021/06/01 03:03:54;;;;;;;8.13;3.83;;;8.90;99.90;;;9.95;82.05;100904.81;4957113;28;20055;-85
2021/06/01 03:06:25;;;;;;;4.80;3.00;;;8.80;99.90;;;9.87;82.13;100898.19;4958061;29;20387;-84
2021/06/01 03:08:52;;;;;;;6.05;3.60;;;8.80;99.90;;;9.77;82.70;100893.06;4956633;29;20106;-85
2021/06/01 03:11:22;;;;;;;7.75;4.55;;;8.60;99.90;;;9.68;82.78;100892.34;4977314;28;20035;-86
2021/06/01 03:13:51;;;;;;;7.32;3.80;;;8.50;99.90;;;9.61;83.07;100894.88;4958052;28;20054;-84
2021/06/01 03:16:20;;;;;;;8.13;4.25;;;8.50;99.90;;;9.63;83.57;100889.78;4957752;28;20035;-86
2021/06/01 03:18:49;;;;;;;8.48;4.22;;;8.40;99.90;;;9.63;84.01;100898.16;4962777;28;20023;-86
2021/06/01 03:21:15;;;;;;;7.03;3.38;;;8.40;99.90;;;9.62;83.97;100895.72;4969955;29;20450;-85
2021/06/01 03:23:43;;;;;;;8.55;4.10;;;8.40;99.90;;;9.62;84.01;100899.31;4962899;28;20122;-86
2021/06/01 03:26:09;;;;;;;6.93;4.05;;;8.40;99.90;;;9.63;84.40;100900.94;4960643;28;20094;-85
2021/06/01 03:28:36;;;;;;;6.57;4.22;;;8.40;99.90;;;9.62;84.74;100904.06;4958905;29;20027;-87
2021/06/01 03:31:02;;;;;;;9.30;4.07;;;8.40;99.90;;;9.68;84.74;100900.72;4958703;28;20031;-88
2021/06/01 03:33:30;;;;;;;13.50;5.15;;;8.40;99.90;;;9.78;84.55;100897.47;4966871;28;20033;-85
2021/06/01 03:35:57;;;;;;;6.97;4.20;;;8.50;99.90;;;9.89;84.26;100895.03;4961070;28;20027;-87
2021/06/01 03:38:23;;;;;;;11.77;4.72;;;8.60;99.90;;;9.99;84.54;100892.59;4956587;29;20035;-86
2021/06/01 03:40:49;;;;;;;9.00;4.35;;;8.70;99.90;;;10.05;84.22;100894.00;4957414;29;20151;-87
2021/06/01 03:43:16;;;;;;;9.02;4.18;;;8.70;99.90;;;10.07;83.74;100888.91;4966439;28;20034;-85
2021/06/01 03:45:41;;;;;;;10.02;4.43;;;8.80;99.90;;;10.11;83.45;100889.03;4972121;28;20031;-86
2021/06/01 03:48:08;;;;;;;8.45;4.25;;;8.80;99.90;;;10.10;83.01;100890.16;4956910;29;20511;-87
2021/06/01 03:50:34;;;;;;;12.18;4.78;;;8.90;99.90;;;10.08;83.19;100901.66;4965157;28;20027;-87
2021/06/01 03:53:02;;;;;;;8.55;4.70;;;8.80;99.90;;;10.16;82.96;100896.34;4977653;28;20038;-86
2021/06/01 03:55:28;;;;;;;6.70;4.05;;;8.90;99.90;;;10.21;82.52;100902.50;4973479;28;20023;-86
2021/06/01 03:57:54;;;;;;;13.02;5.30;;;8.90;99.90;;;10.25;83.06;100897.88;4963466;28;20143;-86
2021/06/01 04:00:29;;;;;;;8.90;4.60;;;9.00;99.90;;;10.43;81.36;100902.06;4960173;29;20436;-85
2021/06/01 04:02:56;;;;;;;9.02;4.28;;;9.10;99.90;;;10.61;80.65;100896.19;4959624;28;20078;-85
2021/06/01 04:05:23;;;;;;;7.88;3.85;;;9.30;99.90;;;10.85;79.06;100891.34;4964964;28;20034;-84
2021/06/01 04:07:49;;;;;;;9.48;4.25;;;9.50;99.90;;;10.96;77.87;100886.91;4964470;29;20031;-84
2021/06/01 04:10:17;;;;;;;7.10;4.43;;;9.60;99.90;;;11.08;76.74;100892.44;4971084;29;20031;-85
2021/06/01 04:12:45;;;;;;;8.15;4.25;;;9.80;99.90;;;11.23;75.10;100884.44;4961869;28;20194;-84
2021/06/01 04:15:12;;;;;;;6.65;3.90;;;10.00;99.90;;;11.47;74.42;100903.91;4964334;29;20042;-87
2021/06/01 04:17:40;;;;;;;10.25;4.13;;;10.10;99.90;;;11.55;73.78;100900.13;4963231;29;20031;-84
2021/06/01 04:20:08;;;;;;;8.75;4.53;;;10.20;99.90;;;11.63;73.15;100902.75;4967926;29;20027;-85
2021/06/01 04:22:34;;;;;;;6.20;3.25;;;10.40;99.90;;;11.76;72.68;100899.91;4968854;28;20043;-85
2021/06/01 04:25:01;;;;;;;5.70;3.70;;;10.50;99.90;;;11.82;72.42;100890.88;4968555;29;20031;-85
2021/06/01 04:27:27;;;;;;;4.65;3.47;;;10.60;99.90;;;11.91;71.74;100896.31;4968586;29;20027;-87
2021/06/01 04:29:54;;;;;;;7.03;4.00;;;10.70;99.90;;;12.10;71.75;100893.59;4962775;29;20544;-85
2021/06/01 04:32:21;;;;;;;9.95;4.45;;;10.80;99.90;;;12.38;70.82;100893.47;4962366;29;20043;-86
2021/06/01 04:34:47;;;;;;;5.95;3.95;;;11.10;99.90;;;12.65;70.25;100898.91;4960210;29;20035;-84
2021/06/01 04:37:14;;;;;;;5.90;3.42;;;11.30;99.90;;;12.85;69.43;100893.31;4959054;29;20167;-84
2021/06/01 04:39:39;;;;;;;7.70;4.18;;;11.50;99.90;;;13.06;68.55;100905.81;4958988;29;20040;-85
2021/06/01 04:42:06;;;;;;;6.07;3.47;;;11.60;99.90;;;13.22;69.04;100899.34;4958308;29;20046;-85
2021/06/01 04:44:32;;;;;;;4.80;3.33;;;11.80;99.90;;;13.37;68.98;100902.06;4959801;28;20114;-84
2021/06/01 04:46:57;;;;;;;7.97;3.15;;;11.90;99.90;;;13.45;68.89;100895.38;4959052;29;20046;-87
2021/06/01 04:49:23;;;;;;;9.00;4.28;;;12.10;99.90;;;13.56;69.82;100899.22;4957805;29;20546;-85
2021/06/01 04:51:49;;;;;;;6.40;3.78;;;12.10;99.90;;;13.69;69.98;100905.47;4958457;28;20114;-87
2021/06/01 04:54:15;;;;;;;12.40;4.35;;;12.20;99.90;;;13.83;69.75;100905.72;4959034;28;20490;-84
2021/06/01 04:56:41;;;;;;;10.48;3.72;;;12.30;99.90;;;14.00;70.01;100902.41;4960343;28;20058;-86
2021/06/01 04:59:07;;;;;;;6.38;3.80;;;12.40;99.90;;;14.22;69.21;100907.19;4961781;28;20015;-89
2021/06/01 05:01:33;;;;;;;8.75;3.92;;;12.60;99.90;;;14.44;68.78;100905.59;4966706;28;20481;-88
2021/06/01 05:03:59;;;;;;;7.03;3.40;;;12.80;99.90;;;14.68;68.30;100905.13;4964033;28;20038;-85
2021/06/01 05:06:25;;;;;;;6.72;3.40;;;12.90;99.90;;;14.92;67.50;100908.69;4963175;28;20043;-85
2021/06/01 05:08:50;;;;;;;7.95;3.15;;;13.20;99.90;;;15.22;67.74;100909.44;4969477;28;20027;-88
2021/06/01 05:11:17;;;;;;;7.03;3.60;;;13.40;99.90;;;15.52;66.66;100909.44;4959664;28;20050;-87
2021/06/01 05:13:43;;;;;;;5.57;3.28;;;13.70;99.90;;;15.81;64.97;100908.53;4963258;28;20057;-87
2021/06/01 05:16:09;;;;;;;6.88;3.35;;;13.90;99.90;;;16.13;63.85;100911.66;4959188;28;20041;-87
2021/06/01 05:18:35;;;;;;;7.32;3.38;;;14.20;99.90;;;16.43;63.11;100911.50;4961112;29;20042;-86
2021/06/01 05:21:01;;;;;;;8.40;3.42;;;14.50;99.90;;;16.68;61.25;100909.69;4960595;29;20473;-89
2021/06/01 05:23:27;;;;;;;7.43;3.50;;;14.80;99.90;;;16.98;60.12;100896.16;4960084;28;20122;-89
2021/06/01 05:25:55;;;;;;;6.32;3.53;;;15.10;99.90;;;17.32;59.67;100903.16;4978592;28;20069;-87
2021/06/01 05:28:21;;;;;;;4.55;3.00;;;15.40;99.90;;;17.65;57.44;100904.91;4978917;28;20033;-88
2021/06/01 05:33:39;;;;;;;5.88;3.10;;;15.90;99.90;;;18.15;55.35;100899.31;4979143;28;20035;-87
2021/06/01 05:36:06;;;;;;;5.30;3.53;;;16.20;99.90;;;18.41;54.27;100891.22;4979013;28;20117;-86
2021/06/01 05:38:32;;;;;;;8.80;3.60;;;16.40;99.90;;;18.65;52.67;100895.28;4959055;28;20023;-88
2021/06/01 05:41:00;;;;;;;6.88;3.90;;;16.70;99.90;;;18.87;52.52;100896.84;4971599;29;20046;-86
2021/06/01 05:43:29;;;;;;;7.40;3.38;;;16.90;99.90;;;18.89;50.18;100891.56;4965407;28;20030;-89
2021/06/01 05:45:55;;;;;;;4.82;2.97;;;17.10;99.90;;;18.99;48.48;100894.75;4960050;28;20027;-87
2021/06/01 05:48:21;;;;;;;6.95;2.72;;;17.20;99.90;;;19.08;47.67;100884.63;4960555;28;20451;-86
2021/06/01 05:50:46;;;;;;;4.85;2.72;;;17.30;99.90;;;19.50;47.95;100891.31;4965407;28;20067;-86
2021/06/01 05:53:16;;;;;;;5.22;2.88;;;17.50;99.90;;;19.76;46.62;100891.56;4961373;28;20374;-86
2021/06/01 05:55:44;;;;;;;6.22;3.13;;;17.80;97.80;;;19.81;45.45;100882.63;4961570;28;20110;-87
2021/06/01 05:58:10;;;;;;;4.57;3.28;;;18.00;92.50;;;20.02;45.33;100878.84;4970454;28;20039;-88
2021/06/01 06:00:35;;;;;;;3.70;2.50;;;18.20;91.40;;;20.18;44.83;100884.78;4987528;28;20038;-86
2021/06/01 06:03:03;;;;;;;4.47;2.58;;;18.30;89.40;;;20.44;44.01;100883.38;4962135;28;20038;-89
2021/06/01 06:05:30;;;;;;;6.30;2.95;;;18.50;86.30;;;20.81;44.22;100880.53;4973491;28;20030;-87
2021/06/01 06:08:12;;;;;;;6.22;2.75;;;18.70;89.30;;;20.54;43.27;100895.84;4978521;28;20027;-88
2021/06/01 06:10:42;;;;;;;5.65;2.63;;;18.80;81.60;;;20.84;44.52;100893.06;4970855;28;20041;-89
2021/06/01 06:13:10;;;;;;;6.35;3.22;;;18.90;86.70;;;21.04;43.51;100900.56;4980206;28;20026;-87
2021/06/01 06:15:37;;;;;;;5.72;3.17;;;19.10;83.00;;;20.77;43.22;100898.84;4984066;28;20037;-85
2021/06/01 06:18:51;;;;;;;7.55;3.05;;;19.10;78.00;;;21.44;43.48;100895.22;4978474;28;20042;-88
2021/06/01 06:21:17;;;;;;;5.18;2.95;;;19.40;80.50;;;21.85;42.18;100892.19;4970628;28;20050;-89
2021/06/01 06:23:44;;;;;;;6.22;2.47;;;19.70;77.80;;;22.26;42.21;100894.81;4971791;28;20035;-89
2021/06/01 06:26:11;;;;;;;5.13;2.70;;;20.00;78.30;;;22.52;41.27;100889.06;4980499;28;20065;-87
2021/06/01 06:28:37;;;;;;;8.23;2.65;;;20.20;75.50;;;22.76;40.68;100889.06;4982234;28;20041;-85
2021/06/01 06:31:04;;;;;;;6.85;2.58;;;20.50;74.80;;;23.13;40.02;100888.72;4979057;28;20022;-85
2021/06/01 06:33:30;;;;;;;5.60;3.08;;;20.80;71.40;;;23.25;39.11;100884.41;4978304;28;20092;-87
2021/06/01 06:35:57;;;;;;;5.93;2.88;;;20.90;69.50;;;23.53;38.85;100892.41;4972510;28;20049;-85
2021/06/01 06:38:23;;;;;;;3.97;2.50;;;21.20;67.70;;;23.56;39.14;100886.63;4974208;28;20110;-86
2021/06/01 06:41:03;;;;;;;7.75;2.88;;;21.20;68.40;;;23.70;39.44;100884.66;4972527;28;20027;-85
2021/06/01 06:43:29;;;;;;;4.78;2.65;;;21.40;68.90;;;24.01;37.29;100888.81;4985080;28;20115;-82
2021/06/01 06:45:55;;;;;;;4.57;1.85;;;21.70;63.40;;;24.51;37.21;100885.53;4969999;28;20039;-83
2021/06/01 06:48:21;;;;;;;5.00;2.28;;;22.00;64.20;;;24.93;37.21;100884.41;4966088;28;20049;-84
2021/06/01 06:50:47;;;;;;;4.10;2.28;;;22.40;64.60;;;25.27;36.48;100892.41;4972346;28;20051;-86
2021/06/01 06:53:13;;;;;;;5.50;2.80;;;22.60;62.40;;;25.54;35.70;100887.13;4969213;28;20487;-84
2021/06/01 06:55:39;;;;;;;4.50;2.30;;;22.90;60.80;;;24.99;35.31;100888.31;4960264;28;20031;-86
2021/06/01 06:58:05;;;;;;;5.47;2.80;;;22.90;58.80;;;25.23;35.75;100888.88;4975010;28;20050;-88
2021/06/01 07:00:31;;;;;;;5.82;2.33;;;23.10;59.60;;;25.67;33.88;100885.09;4968529;28;20030;-84
2021/06/01 07:03:06;;;;;;;4.65;2.45;;;23.20;57.50;;;25.78;33.95;100892.53;4960417;28;20035;-83
2021/06/01 07:05:32;;;;;;;3.83;2.30;;;23.40;57.00;;;25.92;33.18;100892.88;4978174;28;20046;-87
2021/06/01 07:07:59;;;;;;;4.18;2.20;;;23.50;55.70;;;26.16;32.60;100885.56;4966705;28;20030;-84
2021/06/01 07:10:25;;;;;;;6.65;2.65;;;23.60;55.20;;;26.38;33.57;100879.13;4950614;28;20430;-85
2021/06/01 07:12:52;;;;;;;3.95;2.47;;;23.80;56.20;;;25.97;32.18;100877.19;4970847;28;20086;-84
2021/06/01 07:15:24;;;;;;;5.50;2.33;;;23.80;53.60;;;26.02;32.76;100883.16;4971438;28;20026;-88
2021/06/01 07:17:57;;;;;;;4.72;2.22;;;23.90;53.80;;;26.30;32.26;100872.06;4979736;28;20101;-88
2021/06/01 07:20:23;;;;;;;4.35;1.80;;;23.90;53.80;;;26.67;32.48;100871.13;4979656;28;20110;-86
2021/06/01 07:22:49;;;;;;;4.10;2.20;;;24.20;54.00;;;27.06;31.86;100879.16;4978297;28;20023;-86
2021/06/01 07:25:15;;;;;;;3.97;2.28;;;24.50;53.30;;;27.24;30.95;100879.28;4967005;28;20055;-85
2021/06/01 07:27:40;;;;;;;6.28;2.28;;;24.80;52.30;;;26.84;31.86;100884.06;4961285;29;20042;-85
2021/06/01 07:30:09;;;;;;;5.43;2.15;;;24.80;52.20;;;27.61;30.81;100880.31;4957522;29;20043;-89
2021/06/01 07:32:36;;;;;;;6.22;2.08;;;25.00;51.70;;;27.73;29.81;100876.56;4957448;28;20055;-89
2021/06/01 07:35:03;;;;;;;3.25;2.40;;;25.20;50.30;;;28.16;30.20;100884.25;4956060;29;20035;-86
2021/06/01 07:37:29;;;;;;;3.42;2.22;;;25.50;51.20;;;28.29;30.56;100872.63;4956527;29;20035;-87
2021/06/01 07:39:56;;;;;;;5.95;2.03;;;25.70;51.40;;;28.25;29.04;100869.94;4955974;28;20035;-91
2021/06/01 07:42:22;;;;;;;3.50;2.28;;;25.70;49.00;;;28.32;28.74;100854.44;4958602;29;20435;-88
2021/06/01 07:44:48;;;;;;;3.78;2.10;;;25.80;48.40;;;27.95;28.23;100862.16;4965778;29;20031;-89
2021/06/01 07:47:14;;;;;;;5.15;2.15;;;25.90;47.00;;;28.03;29.07;100871.28;4966173;29;20054;-87
2021/06/01 07:49:41;;;;;;;2.75;2.08;;;25.90;48.50;;;27.90;28.94;100867.72;4964149;29;20031;-89
2021/06/01 07:52:07;;;;;;;4.28;2.17;;;25.80;47.70;;;28.65;28.79;100869.03;4954913;29;20073;-87
2021/06/01 07:54:33;;;;;;;4.47;2.25;;;26.10;48.40;;;28.14;28.77;100874.50;4957328;28;20035;-87
2021/06/01 07:56:59;;;;;;;4.80;2.13;;;26.10;47.40;;;28.74;28.18;100867.00;4958525;28;20042;-86
2021/06/01 07:59:25;;;;;;;2.53;2.00;;;26.40;46.80;;;28.53;28.28;100872.84;4972538;28;20061;-88
2021/06/01 08:01:51;;;;;;;2.58;1.83;;;26.30;46.90;;;28.69;28.73;100861.09;4977634;28;20023;-88
2021/06/01 08:04:17;;;;;;;4.22;1.90;;;26.40;47.70;;;28.97;27.17;100867.63;4990767;28;20041;-87
2021/06/01 08:06:43;;;;;;;2.40;1.60;;;26.60;46.00;;;29.56;27.29;100866.13;4980707;28;20086;-87
2021/06/01 08:09:09;;;;;;;5.35;1.83;;;26.80;46.40;;;29.98;26.33;100869.84;4975747;28;20023;-88
2021/06/01 08:11:36;;;;;;;4.68;2.20;;;27.00;45.40;;;29.87;25.89;100869.56;4974804;28;20101;-88
2021/06/01 08:14:03;;;;;;;4.60;2.25;;;27.10;44.60;;;29.94;26.59;100863.44;4976236;28;20031;-88
2021/06/01 08:16:32;;;;;;;4.07;1.95;;;27.30;45.50;;;30.09;26.26;100860.66;4975860;28;20081;-88
2021/06/01 08:19:09;;;;;;;5.05;2.20;;;27.40;44.90;;;30.09;25.21;100858.56;4976755;28;20023;-87
2021/06/01 08:22:00;;;;;;;2.35;1.80;;;27.40;42.90;;;30.42;25.64;100855.69;4975382;28;20505;-87
2021/06/01 08:24:24;;;;;;;2.20;1.63;;;27.60;44.50;;;30.82;25.42;100863.88;4976229;28;20035;-86
2021/06/01 08:26:51;;;;;;;5.03;1.98;;;27.80;43.30;;;31.11;25.74;100854.53;4974712;28;20031;-88
2021/06/01 08:29:17;;;;;;;2.25;1.58;;;28.00;44.60;;;29.91;24.62;100855.00;4973821;28;20061;-87
2021/06/01 08:31:45;;;;;;;1.85;1.50;;;27.70;41.50;;;30.37;23.29;100853.47;4991156;28;20038;-88
2021/06/01 08:34:12;;;;;;;1.80;1.30;;;27.70;40.90;;;30.72;22.77;100845.88;4975795;28;20035;-90
2021/06/01 08:36:38;;;;;;;1.73;1.52;;;27.80;40.40;;;31.10;22.76;100833.53;4974951;28;20471;-87
2021/06/01 08:39:10;;;;;;;1.83;1.30;;;28.00;40.80;;;31.28;22.96;100844.06;4976173;28;20474;-90
2021/06/01 08:41:41;;;;;;;2.30;1.25;;;28.20;41.60;;;31.16;23.19;100825.78;4975788;28;20117;-88
2021/06/01 08:44:13;;;;;;;4.07;1.90;;;28.40;40.50;;;30.48;22.91;100836.44;4976218;28;20028;-90
2021/06/01 08:46:39;;;;;;;2.13;1.33;;;28.30;39.20;;;30.21;23.21;100828.72;4976167;28;20479;-88
2021/06/01 08:49:06;;;;;;;3.42;1.52;;;28.10;39.20;;;29.57;22.49;100828.22;4976271;28;20117;-89
2021/06/01 08:51:32;;;;;;;1.95;1.20;;;27.80;37.30;;;28.70;21.65;100816.72;4978477;28;20125;-88
2021/06/01 08:53:59;;;;;;;4.70;1.40;;;27.40;36.20;;;28.32;23.10;100822.09;4980736;28;20058;-88
2021/06/01 08:56:27;;;;;;;4.40;1.70;;;26.90;37.60;;;28.86;23.96;100821.34;4981796;28;20464;-90
2021/06/01 08:58:53;;;;;;;1.92;1.73;;;27.00;40.00;;;29.20;25.40;100826.69;4980655;28;20478;-87
2021/06/01 09:01:22;;;;;;;2.40;1.55;;;27.10;42.00;;;29.83;23.26;100830.72;4978245;28;20065;-86
2021/06/01 09:03:54;;;;;;;2.03;1.55;;;27.40;40.00;;;29.48;24.26;100827.44;4978749;28;20614;-86
2021/06/01 09:22:53;;;;;;;2.22;1.70;;;27.90;39.00;;;29.64;24.79;100809.81;4977583;28;20125;-88
2021/06/01 09:27:57;;;;;;;3.35;1.70;;;27.60;38.70;;;30.08;23.66;100810.91;4977222;28;20027;-87
2021/06/01 09:30:58;;;;;;;2.90;1.75;;;27.60;40.10;;;29.88;23.04;100815.66;4960652;28;20027;-87
2021/06/01 09:33:32;;;;;;;3.08;1.75;;;27.60;39.30;;;30.50;23.05;100804.25;4956669;28;20418;-87
2021/06/01 09:36:03;;;;;;;3.58;1.70;;;28.00;39.60;;;30.63;22.11;100799.78;4956835;29;20104;-87
2021/06/01 09:38:35;;;;;;;1.67;1.50;;;28.00;38.10;;;29.73;22.05;100799.03;4965555;28;20030;-86
2021/06/01 09:41:16;;;;;;;1.90;1.30;;;27.90;37.50;;;30.24;22.52;100789.53;4970056;28;20384;-88
2021/06/01 09:44:06;;;;;;;2.92;1.75;;;27.90;38.40;;;29.74;23.27;100789.13;4973701;28;20027;-84
2021/06/01 09:54:47;;;;;;;2.25;1.80;;;27.30;40.10;;;29.50;24.04;100784.63;4954099;28;20045;-87
2021/06/01 09:57:26;;;;;;;4.00;1.85;;;27.30;40.10;;;29.18;23.58;100778.31;4975362;28;20037;-85
2021/06/01 10:00:21;;;;;;;4.28;1.77;;;27.30;38.70;;;29.87;23.85;100776.63;4968946;28;20026;-86
2021/06/01 10:02:55;;;;;;;8.43;1.98;;;27.70;39.20;;;29.99;23.48;100778.50;4958082;28;20035;-87
2021/06/01 10:05:29;;;;;;;5.65;1.75;;;27.90;39.00;;;29.92;23.20;100767.31;4966998;28;20034;-88
2021/06/01 10:07:59;;;;;;;1.80;1.50;;;28.00;39.20;;;29.96;23.21;100774.47;4975580;28;20038;-86
2021/06/01 10:10:32;;;;;;;2.40;1.38;;;28.00;39.40;;;30.58;22.16;100771.66;4975846;28;20030;-89
2021/06/01 10:13:04;;;;;;;2.40;1.70;;;28.10;37.70;;;31.32;21.56;100763.88;4975476;28;20027;-87
2021/06/01 10:15:33;;;;;;;5.07;1.80;;;28.40;37.50;;;30.92;21.64;100767.31;4978100;28;20505;-87
2021/06/01 10:18:03;;;;;;;2.35;1.48;;;28.60;37.70;;;30.89;22.14;100751.00;4979910;28;20026;-88
2021/06/01 10:20:33;;;;;;;3.53;1.67;;;28.60;38.50;;;30.54;22.72;100762.41;4979430;28;20031;-87
2021/06/01 10:23:04;;;;;;;4.40;1.75;;;28.50;38.60;;;29.89;24.39;100759.66;4981261;28;20027;-88
2021/06/01 10:25:32;;;;;;;4.28;1.77;;;28.10;39.90;;;29.62;23.48;100755.63;4979158;28;20451;-87
2021/06/01 10:28:02;;;;;;;3.72;1.40;;;28.00;38.30;;;30.08;23.14;100758.25;4962975;28;20130;-88
2021/06/01 10:30:33;;;;;;;2.13;1.70;;;28.10;38.80;;;29.38;24.39;100737.50;4973750;28;20024;-87
2021/06/01 10:33:07;;;;;;;3.63;1.70;;;27.80;39.40;;;29.80;24.15;100741.13;4970058;28;20077;-87
2021/06/01 10:35:41;;;;;;;2.63;1.58;;;28.00;39.60;;;29.38;23.40;100746.13;4962722;29;20146;-86
2021/06/01 10:44:49;;;;;;;1.63;1.52;;;27.80;39.10;;;30.05;23.21;100737.00;4976882;28;20037;-85
2021/06/01 10:50:25;;;;;;;3.30;1.83;;;27.90;40.60;;;29.92;24.98;100729.91;4980202;28;20037;-83
2021/06/01 10:53:40;;;;;;;3.28;2.10;;;28.10;40.70;;;30.43;25.18;100718.16;4976343;28;20042;-86
2021/06/01 10:56:08;;;;;;;6.43;1.98;;;28.30;41.10;;;30.54;24.73;100727.00;4974264;28;20031;-85
2021/06/01 10:58:38;;;;;;;2.92;1.95;;;28.50;41.20;;;30.33;25.33;100709.56;4975233;28;20442;-86
2021/06/01 11:04:24;;;;;;;2.70;1.67;;;28.60;41.00;;;30.73;24.02;100719.78;4968419;28;20047;-85
2021/06/01 11:06:59;;;;;;;2.22;1.65;;;28.60;40.20;;;30.41;24.80;100717.88;4955542;29;20027;-86
2021/06/01 11:09:33;;;;;;;1.50;1.40;;;28.50;40.60;;;30.48;22.89;100708.81;4961663;28;20026;-91